createdAt,value
2023-03-06T00:06:50.751Z,16.09
2023-03-06T00:16:55.849Z,16.01
2023-03-06T00:26:57.397Z,15.93
2023-03-06T00:36:58.920Z,15.86
2023-03-06T00:47:00.299Z,15.73
2023-03-06T00:57:01.691Z,15.59
2023-03-06T01:07:03.103Z,15.53
2023-03-06T01:17:04.505Z,15.49
2023-03-06T01:27:05.902Z,15.44
2023-03-06T01:37:07.287Z,15.37
2023-03-06T01:47:08.697Z,15.34
2023-03-06T01:57:24.083Z,15.34
2023-03-06T02:07:25.464Z,15.34
2023-03-06T02:17:26.848Z,15.36
2023-03-06T02:27:28.219Z,15.45
2023-03-06T02:37:29.586Z,15.63
2023-03-06T02:47:31.139Z,15.82
2023-03-06T02:57:32.531Z,16.02
2023-03-06T03:07:33.892Z,16.15
2023-03-06T03:17:36.515Z,16.28
2023-03-06T03:27:38.114Z,16.34
2023-03-06T03:37:39.712Z,16.39
2023-03-06T03:47:41.290Z,16.32
2023-03-06T03:57:43.049Z,16.24
2023-03-06T04:07:44.501Z,16.14
2023-03-06T04:17:45.941Z,16.06
2023-03-06T04:27:47.308Z,15.96
2023-03-06T04:37:48.873Z,15.89
2023-03-06T04:47:50.257Z,15.80
2023-03-06T04:57:51.654Z,15.66
2023-03-06T05:07:53.292Z,15.72
2023-03-06T05:17:56.306Z,15.84
2023-03-06T05:27:58.308Z,16.06
2023-03-06T05:37:59.679Z,16.26
2023-03-06T05:48:01.084Z,16.48
2023-03-06T05:58:02.506Z,16.64
2023-03-06T06:08:04.041Z,16.74
2023-03-06T06:18:05.486Z,16.79
2023-03-06T06:28:06.870Z,16.84
2023-03-06T06:38:08.260Z,16.81
2023-03-06T06:48:10.302Z,16.72
2023-03-06T06:58:11.770Z,16.81
2023-03-06T07:08:13.162Z,16.95
2023-03-06T07:18:14.558Z,16.97
2023-03-06T07:28:18.690Z,17.06
2023-03-06T07:38:20.998Z,17.12
2023-03-06T07:48:22.378Z,17.04
2023-03-06T07:58:24.060Z,16.97
2023-03-06T08:08:25.599Z,17.03
2023-03-06T08:18:27.596Z,17.18
2023-03-06T08:28:29.219Z,17.23
2023-03-06T08:38:30.587Z,17.27
2023-03-06T08:48:31.966Z,17.23
2023-03-06T08:58:33.410Z,17.19
2023-03-06T09:08:34.808Z,17.18
2023-03-06T09:18:36.465Z,17.24
2023-03-06T09:28:38.869Z,17.39
2023-03-06T09:38:40.395Z,17.46
2023-03-06T09:48:51.659Z,17.43
2023-03-06T09:58:55.428Z,17.43
2023-03-06T10:09:14.271Z,17.44
2023-03-06T10:19:17.987Z,17.41
2023-03-06T10:29:43.662Z,17.48
2023-03-06T10:39:47.056Z,17.51
2023-03-06T10:49:57.566Z,17.51
2023-03-06T11:00:05.135Z,17.51
2023-03-06T11:10:26.941Z,17.52
2023-03-06T11:20:51.492Z,17.47
2023-03-06T11:31:06.054Z,17.45
2023-03-06T11:41:14.361Z,17.51
2023-03-06T11:51:48.055Z,17.56
2023-03-06T12:02:23.618Z,17.58
2023-03-06T12:12:49.948Z,17.54
2023-03-06T12:23:14.432Z,17.53
2023-03-06T12:33:32.610Z,17.53
2023-03-06T12:43:46.144Z,17.50
2023-03-06T12:53:47.875Z,17.51
2023-03-06T13:03:59.569Z,17.56
2023-03-06T13:14:01.106Z,17.61
2023-03-06T13:24:04.482Z,17.59
2023-03-06T13:34:26.358Z,17.53
2023-03-06T13:44:28.186Z,17.44
2023-03-06T13:55:03.542Z,17.44
2023-03-06T14:05:11.815Z,17.35
2023-03-06T14:15:18.983Z,17.32
2023-03-06T14:25:28.072Z,17.26
2023-03-06T14:35:30.563Z,17.14
2023-03-06T14:45:32.033Z,17.03
2023-03-06T14:55:34.629Z,16.93
2023-03-06T15:05:36.206Z,16.84
2023-03-06T15:15:38.186Z,16.76
2023-03-06T15:25:39.717Z,16.71
2023-03-06T15:35:41.132Z,16.65
2023-03-06T15:45:42.533Z,16.57
2023-03-06T15:55:43.937Z,16.50
2023-03-06T16:05:45.339Z,16.46
2023-03-06T16:15:48.542Z,16.37
2023-03-06T16:25:50.079Z,16.30
2023-03-06T16:35:51.533Z,16.19
2023-03-06T16:45:53.060Z,16.13
2023-03-06T16:55:54.553Z,16.08
2023-03-06T17:05:56.011Z,15.99
2023-03-06T17:15:59.292Z,15.91
2023-03-06T17:26:05.084Z,15.87
2023-03-06T17:36:06.967Z,15.79
2023-03-06T17:46:09.762Z,15.76
2023-03-06T17:56:12.492Z,15.71
2023-03-06T18:06:14.182Z,15.62
2023-03-06T18:16:18.237Z,15.57
2023-03-06T18:26:20.625Z,15.52
2023-03-06T18:36:22.952Z,15.48
2023-03-06T18:46:24.550Z,15.46
2023-03-06T18:56:26.144Z,15.40
2023-03-06T19:06:28.015Z,15.35
2023-03-06T19:16:30.194Z,15.35
2023-03-06T19:26:31.620Z,15.30
2023-03-06T19:36:34.121Z,15.26
2023-03-06T19:46:36.042Z,15.24
2023-03-06T19:56:37.454Z,15.23
2023-03-06T20:06:39.116Z,15.21
2023-03-06T20:16:40.752Z,15.20
2023-03-06T20:26:43.205Z,15.35
2023-03-06T20:36:44.596Z,15.57
2023-03-06T20:46:46.165Z,15.80
2023-03-06T20:56:48.507Z,15.97
2023-03-06T21:06:51.880Z,16.13
2023-03-06T21:16:53.411Z,16.25
2023-03-06T21:26:54.803Z,16.31
2023-03-06T21:36:56.334Z,16.29
2023-03-06T21:46:57.742Z,16.20
2023-03-06T21:56:59.145Z,16.08
2023-03-06T22:07:00.526Z,15.97
2023-03-06T22:17:01.976Z,15.85
2023-03-06T22:27:03.476Z,15.74
2023-03-06T22:37:05.030Z,15.60
2023-03-06T22:47:06.430Z,15.45
2023-03-06T22:57:07.995Z,15.31
2023-03-06T23:07:09.524Z,15.25
2023-03-06T23:17:11.362Z,15.21
2023-03-06T23:27:12.770Z,15.16
2023-03-06T23:37:14.268Z,15.08
2023-03-06T23:47:17.219Z,15.07
2023-03-06T23:57:18.618Z,15.05
